createdAt,value
2022-08-29T00:01:21.530Z,6.70
2022-08-29T00:06:24.799Z,6.28
2022-08-29T00:11:26.148Z,6.53
2022-08-29T00:16:27.542Z,6.77
2022-08-29T00:21:29.000Z,6.93
2022-08-29T00:26:30.900Z,7.00
2022-08-29T00:31:32.885Z,6.23
2022-08-29T00:36:34.379Z,6.40
2022-08-29T00:41:35.672Z,6.70
2022-08-29T00:46:43.311Z,6.40
2022-08-29T00:51:46.021Z,6.32
2022-08-29T00:56:47.621Z,6.05
2022-08-29T01:01:49.036Z,5.87
2022-08-29T01:06:51.146Z,6.53
2022-08-29T01:12:11.275Z,6.30
2022-08-29T01:17:14.626Z,5.70
2022-08-29T01:22:15.885Z,6.20
2022-08-29T01:27:19.609Z,6.32
2022-08-29T01:32:22.197Z,6.22
2022-08-29T01:37:25.082Z,5.97
2022-08-29T01:42:26.402Z,6.00
2022-08-29T01:47:30.091Z,5.80
2022-08-29T01:52:32.156Z,5.43
2022-08-29T01:57:33.440Z,5.50
2022-08-29T02:02:34.855Z,5.95
2022-08-29T02:07:36.212Z,5.90
2022-08-29T02:12:37.637Z,6.00
2022-08-29T02:17:39.045Z,5.85
2022-08-29T02:22:40.436Z,5.97
2022-08-29T02:27:42.422Z,5.90
2022-08-29T02:32:43.733Z,5.43
2022-08-29T02:37:45.037Z,5.25
2022-08-29T02:42:46.333Z,5.37
2022-08-29T02:47:48.095Z,5.63
2022-08-29T02:52:49.532Z,5.25
2022-08-29T02:57:52.937Z,5.05
2022-08-29T03:02:55.153Z,5.20
2022-08-29T03:07:56.787Z,5.93
2022-08-29T03:12:58.432Z,5.60
2022-08-29T03:17:59.712Z,4.83
2022-08-29T03:23:01.026Z,5.10
2022-08-29T03:28:02.494Z,4.35
2022-08-29T03:33:08.768Z,4.67
2022-08-29T03:38:12.493Z,4.93
2022-08-29T03:43:13.756Z,5.00
2022-08-29T03:48:15.400Z,5.28
2022-08-29T03:53:16.785Z,4.80
2022-08-29T03:58:18.069Z,4.35
2022-08-29T04:03:20.218Z,4.45
2022-08-29T04:08:26.239Z,4.40
2022-08-29T04:13:27.508Z,4.53
2022-08-29T04:18:28.764Z,4.93
2022-08-29T04:23:30.076Z,4.70
2022-08-29T04:28:31.705Z,4.63
2022-08-29T04:33:32.984Z,4.55
2022-08-29T04:38:34.298Z,5.70
2022-08-29T04:43:36.001Z,4.93
2022-08-29T04:48:37.296Z,4.95
2022-08-29T04:53:38.611Z,4.90
2022-08-29T04:58:41.121Z,5.43
2022-08-29T05:03:44.885Z,4.68
2022-08-29T05:08:46.271Z,4.63
2022-08-29T05:13:48.050Z,5.00
2022-08-29T05:18:49.400Z,4.82
2022-08-29T05:23:51.798Z,4.93
2022-08-29T05:28:53.062Z,4.80
2022-08-29T05:33:54.889Z,4.60
2022-08-29T05:38:56.537Z,4.65
2022-08-29T05:43:58.316Z,4.60
2022-08-29T05:48:59.588Z,7.80
2022-08-29T05:54:00.851Z,5.25
2022-08-29T05:59:02.278Z,5.10
2022-08-29T06:04:03.781Z,5.30
2022-08-29T06:09:05.236Z,5.72
2022-08-29T06:14:06.520Z,5.80
2022-08-29T06:19:07.997Z,4.60
2022-08-29T06:24:09.381Z,5.30
2022-08-29T06:29:11.268Z,4.43
2022-08-29T06:34:12.648Z,4.82
2022-08-29T06:39:14.145Z,3.80
2022-08-29T06:44:15.430Z,3.00
2022-08-29T06:49:17.603Z,2.30
2022-08-29T06:54:20.219Z,2.43
2022-08-29T06:59:21.513Z,2.58
2022-08-29T07:04:22.995Z,2.50
2022-08-29T07:09:29.193Z,2.50
2022-08-29T07:14:30.496Z,2.40
2022-08-29T07:19:31.873Z,2.72
2022-08-29T07:24:34.179Z,2.78
2022-08-29T07:29:35.455Z,2.70
2022-08-29T07:34:36.805Z,2.95
2022-08-29T07:39:38.191Z,3.00
2022-08-29T07:44:39.537Z,2.80
2022-08-29T07:49:41.916Z,2.42
2022-08-29T07:54:43.614Z,2.78
2022-08-29T07:59:45.274Z,2.70
2022-08-29T08:04:46.970Z,2.70
2022-08-29T08:09:54.062Z,2.70
2022-08-29T08:14:57.221Z,2.70
2022-08-29T08:19:58.830Z,2.60
2022-08-29T08:25:00.860Z,3.00
2022-08-29T08:30:02.497Z,2.58
2022-08-29T08:35:04.741Z,2.53
2022-08-29T08:40:07.176Z,2.80
2022-08-29T08:45:32.039Z,3.42
2022-08-29T08:50:44.689Z,3.13
2022-08-29T08:55:48.176Z,2.83
2022-08-29T09:00:55.787Z,2.85
2022-08-29T09:06:04.703Z,2.65
2022-08-29T09:11:18.071Z,3.00
2022-08-29T09:16:28.343Z,2.92
2022-08-29T09:21:41.852Z,2.97
2022-08-29T09:26:44.722Z,3.10
2022-08-29T09:31:46.916Z,3.40
2022-08-29T09:36:50.375Z,3.20
2022-08-29T09:41:59.100Z,2.80
2022-08-29T09:47:21.483Z,3.10
2022-08-29T09:52:24.434Z,3.10
2022-08-29T09:57:27.902Z,3.08
2022-08-29T10:02:45.069Z,3.53
2022-08-29T10:07:54.718Z,3.50
2022-08-29T10:13:30.102Z,3.17
2022-08-29T10:18:31.948Z,3.20
2022-08-29T10:23:45.797Z,3.13
2022-08-29T10:28:56.218Z,3.67
2022-08-29T10:33:57.981Z,3.57
2022-08-29T10:39:03.095Z,3.70
2022-08-29T10:44:08.437Z,3.50
2022-08-29T10:49:21.216Z,3.35
2022-08-29T10:54:31.811Z,3.30
2022-08-29T10:59:45.820Z,3.17
2022-08-29T11:04:55.377Z,4.00
2022-08-29T11:10:08.721Z,3.47
2022-08-29T11:15:16.663Z,3.67
2022-08-29T11:20:20.553Z,3.60
2022-08-29T11:25:22.197Z,3.37
2022-08-29T11:30:40.288Z,3.73
2022-08-29T11:36:03.792Z,3.80
2022-08-29T11:46:53.302Z,4.00
2022-08-29T11:52:01.133Z,3.50
2022-08-29T11:57:05.351Z,3.53
2022-08-29T12:02:07.626Z,3.70
2022-08-29T12:07:09.227Z,3.80
2022-08-29T12:12:12.731Z,3.20
2022-08-29T12:17:17.173Z,3.40
2022-08-29T12:22:37.467Z,3.60
2022-08-29T12:28:06.031Z,3.53
2022-08-29T12:33:26.732Z,3.58
2022-08-29T12:38:28.729Z,3.40
2022-08-29T12:43:30.305Z,3.80
2022-08-29T12:48:35.821Z,3.58
2022-08-29T12:53:38.006Z,3.23
2022-08-29T12:58:39.685Z,3.30
2022-08-29T13:03:41.186Z,3.30
2022-08-29T13:08:42.685Z,3.33
2022-08-29T13:13:44.247Z,3.67
2022-08-29T13:19:00.666Z,3.50
2022-08-29T13:24:19.887Z,3.78
2022-08-29T13:29:26.813Z,3.10
2022-08-29T13:34:28.624Z,3.35
2022-08-29T13:39:46.976Z,3.40
2022-08-29T13:44:54.446Z,3.80
2022-08-29T13:50:00.778Z,3.53
2022-08-29T13:55:02.872Z,3.75
2022-08-29T14:00:07.785Z,3.83
2022-08-29T14:05:10.121Z,3.37
2022-08-29T14:10:13.395Z,3.60
2022-08-29T14:15:18.202Z,3.30
2022-08-29T14:20:19.937Z,3.50
2022-08-29T14:25:21.731Z,3.35
2022-08-29T14:30:24.770Z,3.35
2022-08-29T14:35:31.691Z,3.50
2022-08-29T14:40:33.948Z,3.47
2022-08-29T14:45:35.833Z,3.75
2022-08-29T14:50:37.626Z,3.73
2022-08-29T14:55:39.109Z,3.60
2022-08-29T15:00:42.116Z,3.38
2022-08-29T15:05:43.832Z,3.72
2022-08-29T15:10:50.057Z,3.47
2022-08-29T15:15:51.695Z,3.50
2022-08-29T15:20:53.242Z,3.47
2022-08-29T15:25:54.761Z,3.27
2022-08-29T15:30:56.729Z,3.70
2022-08-29T15:35:58.607Z,3.28
2022-08-29T15:41:00.310Z,3.60
2022-08-29T15:46:02.020Z,3.27
2022-08-29T15:51:04.040Z,3.53
2022-08-29T15:56:05.700Z,3.40
2022-08-29T16:01:07.275Z,3.53
2022-08-29T16:06:09.495Z,3.45
2022-08-29T16:11:11.191Z,3.50
2022-08-29T16:16:12.755Z,3.50
2022-08-29T16:21:14.999Z,3.22
2022-08-29T16:26:20.227Z,3.17
2022-08-29T16:31:22.443Z,3.50
2022-08-29T16:36:25.054Z,3.33
2022-08-29T16:41:27.594Z,3.30
2022-08-29T16:46:31.050Z,3.25
2022-08-29T16:51:33.133Z,3.03
2022-08-29T16:56:34.868Z,3.63
2022-08-29T17:01:41.259Z,3.60
2022-08-29T17:06:43.609Z,3.63
2022-08-29T17:11:48.325Z,3.28
2022-08-29T17:16:51.497Z,3.00
2022-08-29T17:21:53.791Z,3.27
2022-08-29T17:26:55.523Z,3.27
2022-08-29T17:31:57.748Z,3.40
2022-08-29T17:37:00.173Z,3.17
2022-08-29T17:42:02.206Z,3.50
2022-08-29T17:47:04.300Z,3.72
2022-08-29T17:52:06.040Z,3.03
2022-08-29T17:57:08.869Z,3.63
2022-08-29T18:02:10.882Z,3.53
2022-08-29T18:07:12.925Z,3.67
2022-08-29T18:12:14.688Z,3.30
2022-08-29T18:17:16.344Z,3.43
2022-08-29T18:22:17.787Z,3.70
2022-08-29T18:27:19.679Z,3.72
2022-08-29T18:32:22.113Z,3.50
2022-08-29T18:37:23.797Z,3.67
2022-08-29T18:42:40.077Z,3.65
2022-08-29T18:47:42.842Z,3.70
2022-08-29T18:52:45.754Z,3.70
2022-08-29T18:57:49.755Z,4.18
2022-08-29T19:02:52.254Z,3.40
2022-08-29T19:07:55.220Z,4.00
2022-08-29T19:12:57.416Z,3.85
2022-08-29T19:17:58.935Z,3.50
2022-08-29T19:23:00.508Z,3.50
2022-08-29T19:28:02.864Z,3.83
2022-08-29T19:33:06.389Z,3.80
2022-08-29T19:38:08.312Z,3.90
2022-08-29T19:48:32.971Z,3.60
2022-08-29T19:53:36.378Z,3.97
2022-08-29T19:58:40.527Z,3.73
2022-08-29T20:03:42.256Z,3.85
2022-08-29T20:08:46.828Z,4.15
2022-08-29T20:13:51.253Z,3.87
2022-08-29T20:18:53.518Z,3.78
2022-08-29T20:23:58.083Z,3.78
2022-08-29T20:29:00.679Z,4.50
2022-08-29T20:34:06.781Z,3.83
2022-08-29T20:39:09.244Z,3.70
2022-08-29T20:44:18.003Z,4.10
2022-08-29T20:49:22.141Z,4.20
2022-08-29T20:54:24.842Z,4.05
2022-08-29T20:59:34.209Z,4.18
2022-08-29T21:04:55.350Z,3.60
2022-08-29T21:09:56.775Z,3.90
2022-08-29T21:14:58.517Z,3.40
2022-08-29T21:20:00.205Z,3.77
2022-08-29T21:25:04.438Z,3.85
2022-08-29T21:30:06.635Z,3.70
2022-08-29T21:35:10.474Z,3.80
2022-08-29T21:40:13.468Z,4.20
2022-08-29T21:45:15.052Z,3.83
2022-08-29T21:50:16.720Z,3.70
2022-08-29T21:55:19.272Z,3.80
2022-08-29T22:00:22.743Z,4.10
2022-08-29T22:05:24.409Z,3.60
2022-08-29T22:10:28.534Z,3.63
2022-08-29T22:15:48.396Z,3.75
2022-08-29T22:20:51.107Z,3.70
2022-08-29T22:25:56.715Z,4.23
2022-08-29T22:30:58.839Z,3.90
2022-08-29T22:36:00.310Z,4.05
2022-08-29T22:41:01.839Z,3.83
2022-08-29T22:46:07.921Z,3.83
2022-08-29T22:51:16.995Z,3.97
2022-08-29T22:56:18.692Z,3.92
2022-08-29T23:01:20.097Z,4.10
2022-08-29T23:06:21.863Z,4.30
2022-08-29T23:11:25.416Z,3.97
2022-08-29T23:16:27.370Z,3.83
2022-08-29T23:21:29.817Z,4.30
2022-08-29T23:26:32.476Z,3.78
2022-08-29T23:31:34.043Z,4.32
2022-08-29T23:36:35.652Z,4.10
2022-08-29T23:41:39.315Z,3.67
2022-08-29T23:46:41.034Z,3.97
2022-08-29T23:51:42.660Z,4.10
2022-08-29T23:56:44.108Z,3.58
